Time;durP1;ratioP1;P1;durP2;ratioP2;P2;SDS_P1;SDS_P2;PMS_P1;PMS_P2;Temp;Humidity;BMP_temperature;BMP_pressure;BME280_temperature;BME280_humidity;BME280_pressure;Samples;Min_cycle;Max_cycle;Signal;HPM_P1;HPM_P2
2023/10/26 00:02:26;;;;;;;;;;;15.30;92.30;;;;;;4137567;28;20038;-47
2023/10/26 00:05:09;;;;;;;;;;;15.30;92.70;;;;;;4152020;28;19953;-44
2023/10/26 00:07:50;;;;;;;;;;;15.30;92.30;;;;;;4154142;28;19940;-47
2023/10/26 00:10:30;;;;;;;;;;;15.30;92.30;;;;;;4154550;28;19932;-45
2023/10/26 00:13:11;;;;;;;;;;;15.30;92.30;;;;;;4152655;28;19936;-45
2023/10/26 00:15:52;;;;;;;;;;;15.30;92.30;;;;;;4136071;28;19936;-44
2023/10/26 00:18:33;;;;;;;;;;;15.30;92.40;;;;;;4144705;28;20309;-44
2023/10/26 00:21:14;;;;;;;;;;;15.30;92.40;;;;;;4154069;28;19978;-47
2023/10/26 00:23:55;;;;;;;;;;;15.30;92.40;;;;;;4151930;28;20439;-46
2023/10/26 00:26:36;;;;;;;;;;;15.30;92.40;;;;;;4154186;28;19932;-50
2023/10/26 00:29:17;;;;;;;;;;;15.30;92.40;;;;;;4141317;28;19932;-42
2023/10/26 00:31:58;;;;;;;;;;;15.30;92.40;;;;;;4136856;28;19937;-44
2023/10/26 00:34:39;;;;;;;;;;;15.30;92.40;;;;;;4154113;28;19936;-48
2023/10/26 00:37:21;;;;;;;;;;;15.30;92.40;;;;;;4150824;28;20071;-48
2023/10/26 00:40:02;;;;;;;;;;;15.30;92.40;;;;;;4165092;28;19932;-47
2023/10/26 00:42:43;;;;;;;;;;;15.30;92.50;;;;;;4153203;28;19933;-48
2023/10/26 00:45:24;;;;;;;;;;;15.30;92.50;;;;;;4154013;28;20335;-45
2023/10/26 00:48:06;;;;;;;;;;;15.40;92.50;;;;;;4165733;28;20074;-49
2023/10/26 00:50:47;;;;;;;;;;;15.40;92.40;;;;;;4157055;28;19936;-43
2023/10/26 00:53:29;;;;;;;;;;;15.40;92.40;;;;;;4142617;28;20014;-44
2023/10/26 00:56:11;;;;;;;;;;;15.40;92.70;;;;;;4161031;28;19936;-46
2023/10/26 00:58:52;;;;;;;;;;;15.50;92.30;;;;;;4157586;28;19948;-47
2023/10/26 01:01:34;;;;;;;;;;;15.50;92.30;;;;;;4141350;28;19940;-45
2023/10/26 01:04:18;;;;;;;;;;;15.50;92.20;;;;;;4148980;28;19932;-46
2023/10/26 01:06:58;;;;;;;;;;;15.50;92.10;;;;;;4157386;28;19936;-44
2023/10/26 01:09:41;;;;;;;;;;;15.50;92.10;;;;;;4156411;28;19932;-48
2023/10/26 01:12:21;;;;;;;;;;;15.50;92.10;;;;;;4155535;28;19982;-48
2023/10/26 01:15:03;;;;;;;;;;;15.50;92.10;;;;;;4157380;28;20010;-43
2023/10/26 01:17:44;;;;;;;;;;;15.50;92.00;;;;;;4140450;28;19952;-45
2023/10/26 01:20:25;;;;;;;;;;;15.50;92.00;;;;;;4151802;28;19937;-45
2023/10/26 01:23:07;;;;;;;;;;;15.50;92.00;;;;;;4142235;28;19932;-45
2023/10/26 01:25:50;;;;;;;;;;;15.50;92.00;;;;;;4156184;28;19951;-46
2023/10/26 01:28:32;;;;;;;;;;;15.50;92.00;;;;;;4135041;28;19936;-43
2023/10/26 01:31:15;;;;;;;;;;;15.50;92.00;;;;;;4124457;28;19987;-48
2023/10/26 01:33:56;;;;;;;;;;;15.60;92.30;;;;;;4139845;28;19933;-46
2023/10/26 01:36:38;;;;;;;;;;;15.60;91.80;;;;;;4152753;28;19931;-43
2023/10/26 01:39:20;;;;;;;;;;;15.60;91.80;;;;;;4156783;28;19936;-46
2023/10/26 01:42:01;;;;;;;;;;;15.60;92.10;;;;;;4156688;28;19932;-46
2023/10/26 01:44:43;;;;;;;;;;;15.60;91.70;;;;;;4157170;28;19940;-44
2023/10/26 01:47:24;;;;;;;;;;;15.60;91.70;;;;;;4141008;28;19967;-43
2023/10/26 01:50:06;;;;;;;;;;;15.70;92.10;;;;;;4132968;28;19937;-47
2023/10/26 01:52:47;;;;;;;;;;;15.70;91.60;;;;;;4152883;28;20290;-43
2023/10/26 01:55:30;;;;;;;;;;;15.70;91.50;;;;;;4138920;28;20397;-45
2023/10/26 01:58:10;;;;;;;;;;;15.70;91.90;;;;;;4150453;28;19935;-43
2023/10/26 02:00:51;;;;;;;;;;;15.70;91.50;;;;;;4139022;28;20295;-43
2023/10/26 02:03:32;;;;;;;;;;;15.70;91.60;;;;;;4139380;28;19932;-44
2023/10/26 02:06:14;;;;;;;;;;;15.70;91.60;;;;;;4139291;28;20596;-46
2023/10/26 02:08:55;;;;;;;;;;;15.70;91.70;;;;;;4154595;28;19932;-49
2023/10/26 02:11:37;;;;;;;;;;;15.70;91.60;;;;;;4156341;28;19998;-45
2023/10/26 02:14:18;;;;;;;;;;;15.70;91.60;;;;;;4154868;28;19935;-44
2023/10/26 02:16:58;;;;;;;;;;;15.70;91.60;;;;;;4143713;28;19979;-46
2023/10/26 02:19:39;;;;;;;;;;;15.70;91.50;;;;;;4156639;28;19936;-44
2023/10/26 02:22:19;;;;;;;;;;;15.80;91.60;;;;;;4156426;28;19975;-47
2023/10/26 02:25:00;;;;;;;;;;;15.80;91.50;;;;;;4156368;28;19936;-45
2023/10/26 02:27:42;;;;;;;;;;;15.80;91.50;;;;;;4166149;28;20026;-44
2023/10/26 02:30:23;;;;;;;;;;;15.80;91.50;;;;;;4165766;28;20016;-44
2023/10/26 02:33:03;;;;;;;;;;;15.80;91.50;;;;;;4155774;28;20103;-48
2023/10/26 02:35:45;;;;;;;;;;;15.80;91.50;;;;;;4153480;28;20301;-44
2023/10/26 02:38:25;;;;;;;;;;;15.80;91.50;;;;;;4154760;28;20397;-45
2023/10/26 02:41:07;;;;;;;;;;;15.80;91.40;;;;;;4155256;28;19951;-43
2023/10/26 02:43:50;;;;;;;;;;;15.80;91.40;;;;;;4152688;28;19933;-46
2023/10/26 02:46:30;;;;;;;;;;;15.80;91.40;;;;;;4152793;28;20508;-46
2023/10/26 02:49:11;;;;;;;;;;;15.80;91.80;;;;;;4143544;28;19936;-47
2023/10/26 02:51:59;;;;;;;;;;;15.80;91.40;;;;;;4155979;28;19932;-43
2023/10/26 02:54:42;;;;;;;;;;;15.80;91.40;;;;;;4140545;28;19940;-43
2023/10/26 02:57:23;;;;;;;;;;;15.80;91.40;;;;;;4154526;28;19932;-44
2023/10/26 03:00:06;;;;;;;;;;;15.80;91.50;;;;;;4124756;28;19964;-43
2023/10/26 03:02:47;;;;;;;;;;;15.80;91.50;;;;;;4137599;28;19952;-46
2023/10/26 03:05:29;;;;;;;;;;;15.80;91.40;;;;;;4143578;28;20310;-44
2023/10/26 03:08:11;;;;;;;;;;;15.90;91.80;;;;;;4154794;28;19935;-42
2023/10/26 03:10:52;;;;;;;;;;;15.90;91.40;;;;;;4137526;28;19975;-42
2023/10/26 03:13:33;;;;;;;;;;;16.00;91.30;;;;;;4153032;28;19997;-45
2023/10/26 03:16:14;;;;;;;;;;;15.90;91.30;;;;;;4154622;28;19936;-45
2023/10/26 03:18:55;;;;;;;;;;;15.90;91.30;;;;;;4139391;28;19932;-46
2023/10/26 03:21:36;;;;;;;;;;;15.90;91.30;;;;;;4149167;28;19968;-45
2023/10/26 03:24:17;;;;;;;;;;;15.90;91.30;;;;;;4148268;28;19999;-47
2023/10/26 03:26:58;;;;;;;;;;;15.90;91.40;;;;;;4138861;28;20451;-45
2023/10/26 03:29:39;;;;;;;;;;;15.80;91.40;;;;;;4144627;28;19932;-42
2023/10/26 03:32:21;;;;;;;;;;;15.90;91.50;;;;;;4154097;28;19952;-44
2023/10/26 03:35:02;;;;;;;;;;;15.90;91.40;;;;;;4152394;28;19968;-44
2023/10/26 03:37:43;;;;;;;;;;;15.90;91.40;;;;;;4152122;28;19932;-44
2023/10/26 03:40:24;;;;;;;;;;;15.90;91.40;;;;;;4152737;28;19936;-45
2023/10/26 03:43:05;;;;;;;;;;;15.90;91.70;;;;;;4123784;28;19933;-46
2023/10/26 03:45:46;;;;;;;;;;;16.00;91.30;;;;;;4122207;28;20405;-47
2023/10/26 03:48:29;;;;;;;;;;;16.00;91.30;;;;;;4149662;28;20067;-46
2023/10/26 03:51:10;;;;;;;;;;;16.00;91.30;;;;;;4141920;28;20023;-42
2023/10/26 03:53:54;;;;;;;;;;;16.00;91.30;;;;;;4148261;28;20685;-44
2023/10/26 03:56:35;;;;;;;;;;;16.00;91.20;;;;;;4151992;28;19932;-40
2023/10/26 03:59:15;;;;;;;;;;;16.00;91.20;;;;;;4139993;28;19944;-41
2023/10/26 04:01:56;;;;;;;;;;;16.00;91.20;;;;;;4153817;28;19933;-40
2023/10/26 04:04:38;;;;;;;;;;;16.10;91.20;;;;;;4131318;28;20467;-40
2023/10/26 04:07:20;;;;;;;;;;;16.10;91.50;;;;;;4133095;28;20014;-40
2023/10/26 04:10:01;;;;;;;;;;;16.10;91.10;;;;;;4138528;28;20015;-40
2023/10/26 04:12:42;;;;;;;;;;;16.10;91.10;;;;;;4136721;28;20407;-44
2023/10/26 04:15:23;;;;;;;;;;;16.00;91.20;;;;;;4138369;28;19970;-40
2023/10/26 04:18:04;;;;;;;;;;;16.00;91.10;;;;;;4145083;28;19933;-40
2023/10/26 04:20:46;;;;;;;;;;;16.00;91.20;;;;;;4154270;28;19952;-40
2023/10/26 04:23:27;;;;;;;;;;;16.00;91.20;;;;;;4158452;28;20432;-41
2023/10/26 04:26:09;;;;;;;;;;;16.00;91.20;;;;;;4159989;28;19932;-40
2023/10/26 04:28:49;;;;;;;;;;;16.10;91.10;;;;;;4160438;28;19994;-44
2023/10/26 04:31:32;;;;;;;;;;;16.10;91.10;;;;;;4144929;28;20274;-44
2023/10/26 04:34:13;;;;;;;;;;;16.10;91.00;;;;;;4160165;28;19932;-47
2023/10/26 04:36:55;;;;;;;;;;;16.10;91.00;;;;;;4143842;28;19933;-45
2023/10/26 04:39:35;;;;;;;;;;;16.10;91.00;;;;;;4159154;28;19935;-47
2023/10/26 04:42:17;;;;;;;;;;;16.10;91.00;;;;;;4159820;28;19968;-45
2023/10/26 04:44:58;;;;;;;;;;;16.10;91.10;;;;;;4159054;28;19932;-48
2023/10/26 04:47:39;;;;;;;;;;;16.10;91.10;;;;;;4159790;28;19936;-46
2023/10/26 04:50:19;;;;;;;;;;;16.00;91.10;;;;;;4159781;28;19979;-44
2023/10/26 04:53:02;;;;;;;;;;;16.00;91.20;;;;;;4144688;28;20393;-44
2023/10/26 04:55:43;;;;;;;;;;;16.00;91.20;;;;;;4150654;28;19936;-45
2023/10/26 04:58:24;;;;;;;;;;;16.10;91.20;;;;;;4160022;28;20071;-47
2023/10/26 05:01:04;;;;;;;;;;;16.10;91.20;;;;;;4159743;28;19952;-49
2023/10/26 05:03:45;;;;;;;;;;;16.10;91.10;;;;;;4159726;28;20067;-44
2023/10/26 05:06:26;;;;;;;;;;;16.10;91.10;;;;;;4158761;28;19932;-44
2023/10/26 05:09:09;;;;;;;;;;;16.10;91.10;;;;;;4158990;28;19936;-49
2023/10/26 05:11:49;;;;;;;;;;;16.10;91.10;;;;;;4159221;28;19932;-43
2023/10/26 05:14:30;;;;;;;;;;;16.10;91.10;;;;;;4158767;28;20297;-43
2023/10/26 05:17:11;;;;;;;;;;;16.10;91.10;;;;;;4142885;28;19979;-43
2023/10/26 05:19:52;;;;;;;;;;;16.10;91.10;;;;;;4148111;28;19932;-45
2023/10/26 05:22:33;;;;;;;;;;;16.10;91.10;;;;;;4151478;28;19967;-43
2023/10/26 05:25:15;;;;;;;;;;;16.10;91.10;;;;;;4158056;28;19936;-44
2023/10/26 05:27:56;;;;;;;;;;;16.10;91.10;;;;;;4159737;28;19936;-41
2023/10/26 05:30:36;;;;;;;;;;;16.10;91.10;;;;;;4147171;28;19979;-48
2023/10/26 05:33:17;;;;;;;;;;;16.10;91.10;;;;;;4158227;28;19936;-48
2023/10/26 05:35:58;;;;;;;;;;;16.10;91.10;;;;;;4156512;28;20063;-44
2023/10/26 05:38:38;;;;;;;;;;;16.10;91.10;;;;;;4140368;28;19952;-46
2023/10/26 05:41:20;;;;;;;;;;;16.10;91.50;;;;;;4155888;28;19932;-47
2023/10/26 05:44:01;;;;;;;;;;;16.10;91.10;;;;;;4156725;28;19932;-48
2023/10/26 05:46:41;;;;;;;;;;;16.20;91.30;;;;;;4140488;28;19936;-47
2023/10/26 05:49:22;;;;;;;;;;;16.20;91.50;;;;;;4139642;28;19962;-46
2023/10/26 05:52:03;;;;;;;;;;;16.20;91.30;;;;;;4124313;28;19937;-48
2023/10/26 05:54:44;;;;;;;;;;;16.30;91.10;;;;;;4138653;28;19937;-43
2023/10/26 05:57:27;;;;;;;;;;;16.30;91.30;;;;;;4141224;28;20069;-44
2023/10/26 06:00:09;;;;;;;;;;;16.40;90.80;;;;;;4140118;28;19937;-42
2023/10/26 06:02:53;;;;;;;;;;;16.40;90.70;;;;;;4153555;28;19936;-45
2023/10/26 06:05:34;;;;;;;;;;;16.40;90.60;;;;;;4127761;28;19933;-44
2023/10/26 06:08:15;;;;;;;;;;;16.40;90.60;;;;;;4153156;28;19932;-45
2023/10/26 06:10:57;;;;;;;;;;;16.40;90.60;;;;;;4156456;28;19936;-43
2023/10/26 06:13:40;;;;;;;;;;;16.40;90.70;;;;;;4140428;28;19932;-46
2023/10/26 06:16:20;;;;;;;;;;;16.30;90.70;;;;;;4148484;28;19936;-42
2023/10/26 06:19:01;;;;;;;;;;;16.30;90.80;;;;;;4141676;28;19931;-41
2023/10/26 06:21:42;;;;;;;;;;;16.30;90.90;;;;;;4141522;28;19975;-43
2023/10/26 06:24:22;;;;;;;;;;;16.20;91.20;;;;;;4139371;28;19940;-44
2023/10/26 06:27:03;;;;;;;;;;;16.20;91.50;;;;;;4142597;28;20411;-43
2023/10/26 06:29:46;;;;;;;;;;;16.20;91.70;;;;;;4156177;28;20396;-42
2023/10/26 06:32:27;;;;;;;;;;;16.20;91.90;;;;;;4155716;28;20014;-42
2023/10/26 06:35:07;;;;;;;;;;;16.20;92.40;;;;;;4140348;28;19975;-42
2023/10/26 06:37:48;;;;;;;;;;;16.10;92.80;;;;;;4154667;28;20373;-44
2023/10/26 06:40:29;;;;;;;;;;;16.10;92.50;;;;;;4155979;28;20384;-44
2023/10/26 06:43:09;;;;;;;;;;;16.10;92.40;;;;;;4155324;28;19932;-43
2023/10/26 06:45:52;;;;;;;;;;;16.00;92.40;;;;;;4154121;28;20398;-44
2023/10/26 06:48:33;;;;;;;;;;;16.10;92.50;;;;;;4154650;28;19976;-46
2023/10/26 06:51:14;;;;;;;;;;;16.10;92.40;;;;;;4154932;28;20455;-44
2023/10/26 06:53:54;;;;;;;;;;;16.10;92.30;;;;;;4148860;28;20376;-45
2023/10/26 06:56:36;;;;;;;;;;;16.20;92.10;;;;;;4155596;28;19935;-41
2023/10/26 06:59:17;;;;;;;;;;;16.20;91.80;;;;;;4155475;28;19936;-41
2023/10/26 07:01:59;;;;;;;;;;;16.30;91.60;;;;;;4154948;28;19933;-45
2023/10/26 07:04:43;;;;;;;;;;;16.30;91.50;;;;;;4155802;28;20285;-42
2023/10/26 07:07:24;;;;;;;;;;;16.30;91.50;;;;;;4154939;28;19948;-45
2023/10/26 07:10:05;;;;;;;;;;;16.30;91.80;;;;;;4154086;28;19936;-42
2023/10/26 07:12:46;;;;;;;;;;;16.40;91.40;;;;;;4154815;28;19936;-41
2023/10/26 07:15:27;;;;;;;;;;;16.40;91.30;;;;;;4138740;28;20333;-41
2023/10/26 07:18:10;;;;;;;;;;;16.40;91.40;;;;;;4151806;28;19932;-44
2023/10/26 07:20:51;;;;;;;;;;;16.40;91.40;;;;;;4146864;28;19939;-49
2023/10/26 07:23:32;;;;;;;;;;;16.40;91.50;;;;;;4153903;28;20408;-43
2023/10/26 07:26:15;;;;;;;;;;;16.30;91.60;;;;;;4153397;28;20444;-42
2023/10/26 07:28:57;;;;;;;;;;;16.30;91.80;;;;;;4134715;28;20393;-43
2023/10/26 07:31:37;;;;;;;;;;;16.30;91.70;;;;;;4140322;28;19933;-41
2023/10/26 07:34:19;;;;;;;;;;;16.30;92.10;;;;;;4138470;28;19936;-40
2023/10/26 07:37:00;;;;;;;;;;;16.20;91.70;;;;;;4140343;28;19996;-45
2023/10/26 07:39:40;;;;;;;;;;;16.20;91.70;;;;;;4135123;28;20255;-44
2023/10/26 07:42:26;;;;;;;;;;;16.20;91.80;;;;;;4141420;28;20397;-42
2023/10/26 07:45:07;;;;;;;;;;;16.10;91.40;;;;;;4153606;28;19932;-40
2023/10/26 07:47:48;;;;;;;;;;;16.10;91.40;;;;;;4150176;28;19932;-41
2023/10/26 07:50:30;;;;;;;;;;;16.00;91.50;;;;;;4139219;28;19937;-40
2023/10/26 07:53:11;;;;;;;;;;;16.00;91.50;;;;;;4154532;28;19936;-42
2023/10/26 07:55:56;;;;;;;;;;;15.90;91.50;;;;;;4151904;28;19982;-42
2023/10/26 07:58:37;;;;;;;;;;;15.90;91.20;;;;;;4153259;28;19933;-42
2023/10/26 08:01:18;;;;;;;;;;;15.80;91.40;;;;;;4154079;28;20345;-44
2023/10/26 08:03:58;;;;;;;;;;;15.80;91.70;;;;;;4140622;28;19932;-41
2023/10/26 08:06:41;;;;;;;;;;;15.80;91.70;;;;;;4151030;28;20421;-46
2023/10/26 08:09:21;;;;;;;;;;;15.70;91.70;;;;;;4152708;28;19932;-43
2023/10/26 08:12:02;;;;;;;;;;;15.70;91.80;;;;;;4139137;28;19948;-41
2023/10/26 08:14:44;;;;;;;;;;;15.70;91.80;;;;;;4137980;28;19936;-43
2023/10/26 08:17:45;;;;;;;;;;;15.60;92.20;;;;;;4136814;28;19937;-42
2023/10/26 08:20:27;;;;;;;;;;;15.60;91.70;;;;;;4122080;28;19936;-41
2023/10/26 08:23:09;;;;;;;;;;;15.60;91.60;;;;;;4122198;28;20034;-42
2023/10/26 08:25:50;;;;;;;;;;;15.60;91.40;;;;;;4137965;28;19932;-41
2023/10/26 08:28:31;;;;;;;;;;;15.60;91.50;;;;;;4154302;28;20389;-40
2023/10/26 08:31:12;;;;;;;;;;;15.50;91.60;;;;;;4154348;28;19933;-43
2023/10/26 08:33:53;;;;;;;;;;;15.50;91.70;;;;;;4139652;28;19952;-40
2023/10/26 08:36:33;;;;;;;;;;;15.50;92.20;;;;;;4138411;28;19975;-43
2023/10/26 08:39:16;;;;;;;;;;;15.50;91.80;;;;;;4153379;28;19936;-40
2023/10/26 08:41:58;;;;;;;;;;;15.50;91.90;;;;;;4154769;28;20444;-43
2023/10/26 08:44:39;;;;;;;;;;;15.50;92.30;;;;;;4153716;28;20010;-41
2023/10/26 08:47:20;;;;;;;;;;;15.50;92.00;;;;;;4151743;28;19932;-44
2023/10/26 08:50:03;;;;;;;;;;;15.50;92.00;;;;;;4154225;28;19932;-42
2023/10/26 08:52:56;;;;;;;;;;;15.40;92.00;;;;;;4142100;28;20281;-40
2023/10/26 08:55:39;;;;;;;;;;;15.40;92.10;;;;;;4151629;28;19948;-41
2023/10/26 08:58:20;;;;;;;;;;;15.40;92.20;;;;;;4136556;28;20060;-40
2023/10/26 09:01:04;;;;;;;;;;;15.40;92.50;;;;;;4152559;28;19932;-42
2023/10/26 09:03:45;;;;;;;;;;;15.40;92.50;;;;;;4153161;28;20409;-47
2023/10/26 09:06:42;;;;;;;;;;;15.40;92.50;;;;;;4154081;28;20693;-45
2023/10/26 09:09:23;;;;;;;;;;;15.50;92.50;;;;;;4137709;28;19933;-44
2023/10/26 09:12:10;;;;;;;;;;;15.40;92.50;;;;;;4124910;28;19933;-42
2023/10/26 09:14:58;;;;;;;;;;;15.40;92.60;;;;;;4152611;28;20631;-46
2023/10/26 09:17:39;;;;;;;;;;;15.40;92.80;;;;;;4156937;28;20014;-42
2023/10/26 09:20:21;;;;;;;;;;;15.40;92.80;;;;;;4140907;28;19949;-45
2023/10/26 09:23:02;;;;;;;;;;;15.30;92.70;;;;;;4140648;28;19933;-44
2023/10/26 09:25:56;;;;;;;;;;;15.40;92.80;;;;;;4156725;28;19982;-44
2023/10/26 09:28:51;;;;;;;;;;;15.40;92.90;;;;;;4156422;28;20004;-43
2023/10/26 09:31:32;;;;;;;;;;;15.30;92.90;;;;;;4142987;28;19933;-44
2023/10/26 09:34:13;;;;;;;;;;;15.30;92.90;;;;;;4140772;28;20290;-45
2023/10/26 09:37:00;;;;;;;;;;;15.30;92.90;;;;;;4157261;28;20345;-44
2023/10/26 09:39:42;;;;;;;;;;;15.30;93.00;;;;;;4155886;28;19932;-46
2023/10/26 09:42:23;;;;;;;;;;;15.30;93.00;;;;;;4156824;28;20018;-43
2023/10/26 09:45:05;;;;;;;;;;;15.30;93.00;;;;;;4156480;28;19982;-48
2023/10/26 09:47:47;;;;;;;;;;;15.30;93.10;;;;;;4156676;28;20479;-44
2023/10/26 09:50:29;;;;;;;;;;;15.40;93.20;;;;;;4151628;28;20127;-46
2023/10/26 09:53:11;;;;;;;;;;;15.40;93.30;;;;;;4155369;28;19936;-43
2023/10/26 09:55:51;;;;;;;;;;;15.40;93.20;;;;;;4140555;28;20560;-44
2023/10/26 09:58:35;;;;;;;;;;;15.50;93.10;;;;;;4154484;28;19932;-45
2023/10/26 10:01:33;;;;;;;;;;;15.40;93.00;;;;;;4156139;28;19932;-45
2023/10/26 10:04:18;;;;;;;;;;;15.50;92.90;;;;;;4154955;28;19951;-45
2023/10/26 10:07:00;;;;;;;;;;;15.40;93.20;;;;;;4156426;28;20058;-46
2023/10/26 10:09:56;;;;;;;;;;;15.50;92.80;;;;;;4156401;28;19932;-44
2023/10/26 10:12:38;;;;;;;;;;;15.50;92.60;;;;;;4155559;28;20055;-43
2023/10/26 10:15:32;;;;;;;;;;;15.50;92.60;;;;;;4156194;28;20447;-43
2023/10/26 10:18:23;;;;;;;;;;;15.60;92.70;;;;;;4139364;28;20294;-45
2023/10/26 10:21:23;;;;;;;;;;;15.60;92.60;;;;;;4148707;28;20497;-44
2023/10/26 10:24:05;;;;;;;;;;;15.70;92.50;;;;;;4138647;28;19958;-46
2023/10/26 10:27:04;;;;;;;;;;;15.70;92.40;;;;;;4155524;28;20063;-46
2023/10/26 10:29:45;;;;;;;;;;;15.70;92.40;;;;;;4155020;28;19985;-47
2023/10/26 10:32:48;;;;;;;;;;;15.80;92.30;;;;;;4156376;28;20466;-46
2023/10/26 10:35:36;;;;;;;;;;;15.80;92.20;;;;;;4154934;28;19936;-43
2023/10/26 10:38:18;;;;;;;;;;;15.80;92.20;;;;;;4133859;28;20302;-43
2023/10/26 10:41:14;;;;;;;;;;;15.80;92.20;;;;;;4138262;28;19936;-43
2023/10/26 10:43:59;;;;;;;;;;;15.80;92.10;;;;;;4138237;28;19940;-43
2023/10/26 10:46:39;;;;;;;;;;;15.80;92.00;;;;;;4134498;28;19951;-44
2023/10/26 10:49:25;;;;;;;;;;;15.80;92.30;;;;;;4123185;28;20342;-48
2023/10/26 10:52:15;;;;;;;;;;;15.80;92.10;;;;;;4139340;28;19932;-44
2023/10/26 10:54:56;;;;;;;;;;;15.80;92.10;;;;;;4155502;28;19932;-46
2023/10/26 10:57:55;;;;;;;;;;;15.80;92.20;;;;;;4155745;28;20018;-45
2023/10/26 11:00:42;;;;;;;;;;;15.80;92.10;;;;;;4154634;28;19955;-44
2023/10/26 11:03:23;;;;;;;;;;;15.90;92.10;;;;;;4140045;28;19993;-45
2023/10/26 11:06:04;;;;;;;;;;;16.00;92.00;;;;;;4138909;28;19936;-45
2023/10/26 11:08:47;;;;;;;;;;;16.00;91.90;;;;;;4155092;28;19936;-45
2023/10/26 11:11:29;;;;;;;;;;;16.00;91.70;;;;;;4155699;28;19932;-45
2023/10/26 11:14:11;;;;;;;;;;;16.00;91.70;;;;;;4140202;28;19932;-46
2023/10/26 11:16:52;;;;;;;;;;;16.10;91.70;;;;;;4153702;28;19932;-45
2023/10/26 11:19:36;;;;;;;;;;;16.10;92.00;;;;;;4140412;28;19933;-45
2023/10/26 11:22:17;;;;;;;;;;;16.20;91.60;;;;;;4138759;28;20286;-45
2023/10/26 11:24:59;;;;;;;;;;;16.20;91.60;;;;;;4153367;28;20007;-45
2023/10/26 11:27:44;;;;;;;;;;;16.20;91.60;;;;;;4152306;28;20348;-42
2023/10/26 11:30:25;;;;;;;;;;;16.20;91.60;;;;;;4152018;28;19932;-42
2023/10/26 11:33:07;;;;;;;;;;;16.20;91.90;;;;;;4153189;28;20062;-47
2023/10/26 11:35:47;;;;;;;;;;;16.20;91.30;;;;;;4154511;28;20321;-43
2023/10/26 11:38:28;;;;;;;;;;;16.20;91.40;;;;;;4155094;28;19932;-44
2023/10/26 11:41:10;;;;;;;;;;;16.20;91.80;;;;;;4155023;28;19936;-45
2023/10/26 11:43:51;;;;;;;;;;;16.20;91.50;;;;;;4138799;28;19932;-43
2023/10/26 11:46:33;;;;;;;;;;;16.30;91.50;;;;;;4148055;28;20322;-43
2023/10/26 11:49:14;;;;;;;;;;;16.20;91.90;;;;;;4153584;28;20278;-42
2023/10/26 11:51:55;;;;;;;;;;;16.30;91.50;;;;;;4153954;28;20381;-42
2023/10/26 11:54:51;;;;;;;;;;;16.30;91.50;;;;;;4152574;28;19936;-41
2023/10/26 11:57:33;;;;;;;;;;;16.30;91.50;;;;;;4144862;28;20294;-41
2023/10/26 12:00:14;;;;;;;;;;;16.30;91.40;;;;;;4143816;28;19952;-41
2023/10/26 12:02:55;;;;;;;;;;;16.30;91.40;;;;;;4150626;28;19932;-43
2023/10/26 12:05:37;;;;;;;;;;;16.30;91.40;;;;;;4151392;28;20006;-45
2023/10/26 12:08:17;;;;;;;;;;;16.30;91.40;;;;;;4152869;28;20071;-41
2023/10/26 12:10:58;;;;;;;;;;;16.30;91.40;;;;;;4147275;28;19935;-44
2023/10/26 12:13:40;;;;;;;;;;;16.30;91.20;;;;;;4153090;28;20001;-44
2023/10/26 12:16:21;;;;;;;;;;;16.30;91.10;;;;;;4143290;28;20023;-42
2023/10/26 12:19:02;;;;;;;;;;;16.30;91.10;;;;;;4153432;28;19932;-44
2023/10/26 12:21:43;;;;;;;;;;;16.30;91.10;;;;;;4153556;28;20460;-41
2023/10/26 12:24:24;;;;;;;;;;;16.30;91.00;;;;;;4137769;28;19932;-42
2023/10/26 12:27:04;;;;;;;;;;;16.30;91.00;;;;;;4154020;28;19932;-42
2023/10/26 12:29:47;;;;;;;;;;;16.20;90.90;;;;;;4153437;28;20631;-42
2023/10/26 12:32:27;;;;;;;;;;;16.30;90.90;;;;;;4154574;28;20674;-42
2023/10/26 12:35:08;;;;;;;;;;;16.20;90.80;;;;;;4153393;28;20079;-43
2023/10/26 12:37:49;;;;;;;;;;;16.30;90.90;;;;;;4143199;28;20037;-45
2023/10/26 12:40:30;;;;;;;;;;;16.20;90.80;;;;;;4152682;28;19932;-48
2023/10/26 12:43:11;;;;;;;;;;;16.20;90.90;;;;;;4153852;28;20294;-46
2023/10/26 12:45:53;;;;;;;;;;;16.20;90.90;;;;;;4145273;28;20397;-45
2023/10/26 12:48:34;;;;;;;;;;;16.20;91.00;;;;;;4150484;28;19936;-43
2023/10/26 12:51:14;;;;;;;;;;;16.10;91.00;;;;;;4157782;28;20408;-45
2023/10/26 12:53:55;;;;;;;;;;;16.10;91.00;;;;;;4151936;28;20298;-48
2023/10/26 12:56:39;;;;;;;;;;;16.10;91.00;;;;;;4157375;28;20068;-46
2023/10/26 12:59:20;;;;;;;;;;;16.10;91.10;;;;;;4157353;28;19951;-45
2023/10/26 13:02:02;;;;;;;;;;;16.10;91.10;;;;;;4157321;28;19932;-44
2023/10/26 13:04:43;;;;;;;;;;;16.00;91.10;;;;;;4156289;28;20309;-43
2023/10/26 13:07:24;;;;;;;;;;;16.00;91.10;;;;;;4142620;28;20386;-43
2023/10/26 13:10:05;;;;;;;;;;;16.00;91.10;;;;;;4156964;28;20501;-43
2023/10/26 13:12:47;;;;;;;;;;;16.00;91.10;;;;;;4156498;28;19978;-43
2023/10/26 13:15:28;;;;;;;;;;;15.90;91.50;;;;;;4155880;28;20294;-43
2023/10/26 13:18:10;;;;;;;;;;;15.90;91.20;;;;;;4155681;28;20389;-42
2023/10/26 13:20:51;;;;;;;;;;;15.90;91.20;;;;;;4156667;28;20278;-47
2023/10/26 13:23:32;;;;;;;;;;;15.90;91.20;;;;;;4156539;28;20388;-45
2023/10/26 13:26:13;;;;;;;;;;;15.90;91.20;;;;;;4148368;28;19934;-44
2023/10/26 13:28:53;;;;;;;;;;;15.90;91.20;;;;;;4147742;28;19951;-44
2023/10/26 13:31:34;;;;;;;;;;;15.90;91.70;;;;;;4152343;28;20063;-49
2023/10/26 13:34:17;;;;;;;;;;;15.90;91.30;;;;;;4130981;28;19932;-47
2023/10/26 13:36:57;;;;;;;;;;;15.90;91.20;;;;;;4140009;28;20318;-45
2023/10/26 13:39:44;;;;;;;;;;;15.90;91.80;;;;;;4129633;28;20460;-46
2023/10/26 13:42:26;;;;;;;;;;;15.90;91.50;;;;;;4153740;28;20389;-49
2023/10/26 13:45:08;;;;;;;;;;;15.90;91.60;;;;;;4143460;28;19975;-46
2023/10/26 13:47:49;;;;;;;;;;;16.00;91.50;;;;;;4155960;28;19936;-45
2023/10/26 13:50:31;;;;;;;;;;;16.00;91.60;;;;;;4155944;28;19932;-42
2023/10/26 13:53:12;;;;;;;;;;;15.90;91.90;;;;;;4144267;28;19936;-43
2023/10/26 13:55:53;;;;;;;;;;;15.90;91.60;;;;;;4140167;28;19933;-44
2023/10/26 13:58:34;;;;;;;;;;;15.90;91.60;;;;;;4141164;28;20465;-43
2023/10/26 14:01:14;;;;;;;;;;;15.90;92.00;;;;;;4138948;28;19979;-48
2023/10/26 14:03:55;;;;;;;;;;;15.90;91.70;;;;;;4154279;28;19955;-43
2023/10/26 14:06:37;;;;;;;;;;;15.90;91.70;;;;;;4156053;28;19944;-43
2023/10/26 14:09:18;;;;;;;;;;;15.90;91.80;;;;;;4155181;28;20052;-43
2023/10/26 14:12:01;;;;;;;;;;;15.80;91.80;;;;;;4155884;28;20047;-47
2023/10/26 14:14:41;;;;;;;;;;;15.90;91.80;;;;;;4139246;28;19937;-45
2023/10/26 14:17:23;;;;;;;;;;;15.90;91.90;;;;;;4140269;28;19937;-47
2023/10/26 14:20:06;;;;;;;;;;;15.90;91.90;;;;;;4151243;28;20290;-44
2023/10/26 14:22:48;;;;;;;;;;;15.80;92.00;;;;;;4155439;28;20067;-41
2023/10/26 14:25:29;;;;;;;;;;;15.80;92.00;;;;;;4155449;28;20582;-40
2023/10/26 14:28:09;;;;;;;;;;;15.80;92.20;;;;;;4148889;28;19936;-48
2023/10/26 14:30:50;;;;;;;;;;;15.90;92.40;;;;;;4153852;28;19933;-43
2023/10/26 14:33:31;;;;;;;;;;;15.90;92.80;;;;;;4155975;28;20408;-54
2023/10/26 14:36:12;;;;;;;;;;;16.00;92.80;;;;;;4140427;28;20014;-52
2023/10/26 14:38:54;;;;;;;;;;;16.10;92.70;;;;;;4122364;28;19937;-50
2023/10/26 14:41:35;;;;;;;;;;;16.10;92.70;;;;;;4126006;28;19937;-49
2023/10/26 14:44:16;;;;;;;;;;;16.10;92.70;;;;;;4131849;28;19933;-49
2023/10/26 14:46:56;;;;;;;;;;;16.00;92.70;;;;;;4139653;28;19936;-47
2023/10/26 14:49:38;;;;;;;;;;;16.00;92.70;;;;;;4148314;28;20068;-50
2023/10/26 14:52:19;;;;;;;;;;;16.00;92.70;;;;;;4132620;28;20490;-49
2023/10/26 14:55:01;;;;;;;;;;;16.00;92.70;;;;;;4139167;28;20401;-50
2023/10/26 14:57:42;;;;;;;;;;;15.90;92.80;;;;;;4153739;28;20254;-50
2023/10/26 15:00:22;;;;;;;;;;;15.90;92.90;;;;;;4144153;28;19936;-52
2023/10/26 15:03:03;;;;;;;;;;;15.90;93.00;;;;;;4150280;28;19932;-53
2023/10/26 15:05:44;;;;;;;;;;;15.90;93.00;;;;;;4155296;28;20063;-51
2023/10/26 15:08:25;;;;;;;;;;;15.80;93.10;;;;;;4140383;28;20405;-49
2023/10/26 15:11:08;;;;;;;;;;;15.80;93.10;;;;;;4153610;28;20513;-49
2023/10/26 15:14:02;;;;;;;;;;;15.80;93.20;;;;;;4154046;28;19935;-51
2023/10/26 15:16:43;;;;;;;;;;;15.80;93.20;;;;;;4154989;28;19936;-52
2023/10/26 15:19:25;;;;;;;;;;;15.80;93.30;;;;;;4149661;28;19932;-49
2023/10/26 15:22:06;;;;;;;;;;;15.80;93.30;;;;;;4142049;28;19944;-51
2023/10/26 15:24:48;;;;;;;;;;;15.80;93.40;;;;;;4143990;28;20011;-48
2023/10/26 15:27:30;;;;;;;;;;;15.80;93.40;;;;;;4155530;28;20063;-51
2023/10/26 15:30:12;;;;;;;;;;;15.80;93.50;;;;;;4155009;28;19960;-48
2023/10/26 15:32:53;;;;;;;;;;;15.80;93.60;;;;;;4155109;28;19936;-50
2023/10/26 15:35:34;;;;;;;;;;;15.80;93.60;;;;;;4154389;28;20060;-52
2023/10/26 15:38:15;;;;;;;;;;;15.80;93.70;;;;;;4154055;28;19936;-51
2023/10/26 15:41:00;;;;;;;;;;;15.80;93.90;;;;;;4153648;28;19979;-48
2023/10/26 15:43:43;;;;;;;;;;;15.80;94.00;;;;;;4164629;28;20005;-48